Aérodrome :
LOGIN :

S'inscrire | Disclaimer

   EN    FR    IT 

 










Légende :    VFR   VFR Marginal   IFR   IFR Intensif   IFR Très Intensif
Visi : 
Plafond : 
>= 8 km
>= 3000ft
5 à 8 km
1000 à 3000 ft
1500m à 5 km
500 à 1000 ft
800 à 1500m
200 à 500 ft
< 800m
< 200 ft
Symboles :   Orages  Brouillard  Fortes neiges  Fortes précipitations  Vent > 20 kt
SIGMETs :   Divers  Orages  Givrage  Turbulence  Onde Orograph.  Cendres Volcan.






- Altitude de l'aérodrome : 1325 ft
- Code IATA : EBU


LFMH - St-Etienne Boutheon

DERNIER METAR :
  • 180000Z AUTO 00000KT 9999 OVC042 01/01 Q1028

METARs EXPIRÉS :
  • 172330Z AUTO VRB02KT 9999 FEW007 OVC041 01/01 Q1028
  • 172300Z AUTO 36003KT 8000 OVC039 01/01 Q1028
  • 172230Z AUTO VRB02KT 9999 OVC042 01/01 Q1028
  • 172200Z AUTO VRB02KT 9000 BKN039 OVC046 01/01 Q1028
  • 172130Z AUTO VRB02KT 9000 SCT023 BKN031 OVC040 01/00 Q1028
  • 172100Z AUTO 00000KT 8000 BKN024 BKN031 OVC047 01/00 Q1028

TAF TAF LFMH
Valide du 17 à 18h jusqu'au 18 à 18h UTC


171700Z 1718/1818 34005KT 9999 BKN030
TEMPO 1718/1721 4000 -RA BKN012
BECMG 1721/1724 OVC012
TEMPO 1800/1810 BKN006
PROB40
TEMPO 1800/1806 2500 -RADZ BR BKN004
BECMG 1810/1812 BKN030
BECMG 1812/1815 CAVOK
ATIS : +33 4 77 36 17 51



MET'MAP, la Météo Aéronautique d'un coup d'oeil ! - Copyright ORBIFLY Décembre 2007 - Disclaimer

ORBIFLY MET'MAP TEAM :

Programmation & Développement : Alexandra Zaïnal
Sur une idée originale de : Baudouin d'Aumeries
Assistance à la programmation : Marc-Olivier Méhu
Soutien technique & logistique : Manuel Goepfert

Contact : metmap@orbifly.com




SOURCES & CREDITS :

   NOAA